sensor_id;sensor_type;location;lat;lon;timestamp;P1;durP1;ratioP1;P2;durP2;ratioP2
60488;SDS011;46331;49.252;8.904;2023-05-10T00:00:25;2.20;;;0.60;;
60488;SDS011;46331;49.252;8.904;2023-05-10T00:01:09;1.58;;;0.50;;
60488;SDS011;46331;49.252;8.904;2023-05-10T00:01:50;1.85;;;0.40;;
60488;SDS011;46331;49.252;8.904;2023-05-10T00:02:30;2.77;;;0.50;;
60488;SDS011;46331;49.252;8.904;2023-05-10T00:03:14;1.88;;;0.50;;
60488;SDS011;46331;49.252;8.904;2023-05-10T00:03:54;1.77;;;0.40;;
60488;SDS011;46331;49.252;8.904;2023-05-10T00:04:35;2.73;;;0.50;;
60488;SDS011;46331;49.252;8.904;2023-05-10T00:05:16;1.77;;;0.50;;
60488;SDS011;46331;49.252;8.904;2023-05-10T00:05:56;2.50;;;0.50;;
60488;SDS011;46331;49.252;8.904;2023-05-10T00:06:37;2.10;;;0.50;;
60488;SDS011;46331;49.252;8.904;2023-05-10T00:07:18;1.43;;;0.40;;
60488;SDS011;46331;49.252;8.904;2023-05-10T00:07:58;1.85;;;0.52;;
60488;SDS011;46331;49.252;8.904;2023-05-10T00:08:39;2.03;;;0.60;;
60488;SDS011;46331;49.252;8.904;2023-05-10T00:09:19;2.33;;;0.60;;
60488;SDS011;46331;49.252;8.904;2023-05-10T00:10:00;2.20;;;0.47;;
60488;SDS011;46331;49.252;8.904;2023-05-10T00:10:40;1.75;;;0.55;;
60488;SDS011;46331;49.252;8.904;2023-05-10T00:11:21;1.83;;;0.40;;
60488;SDS011;46331;49.252;8.904;2023-05-10T00:12:02;3.55;;;0.57;;
60488;SDS011;46331;49.252;8.904;2023-05-10T00:12:42;3.07;;;0.50;;
60488;SDS011;46331;49.252;8.904;2023-05-10T00:13:23;1.33;;;0.40;;
60488;SDS011;46331;49.252;8.904;2023-05-10T00:14:03;5.13;;;0.70;;
60488;SDS011;46331;49.252;8.904;2023-05-10T00:14:44;2.08;;;0.50;;
60488;SDS011;46331;49.252;8.904;2023-05-10T00:15:25;2.17;;;0.55;;
60488;SDS011;46331;49.252;8.904;2023-05-10T00:16:06;2.10;;;0.50;;
60488;SDS011;46331;49.252;8.904;2023-05-10T00:16:46;4.35;;;0.65;;
60488;SDS011;46331;49.252;8.904;2023-05-10T00:17:27;3.10;;;0.50;;
60488;SDS011;46331;49.252;8.904;2023-05-10T00:18:07;1.93;;;0.50;;
60488;SDS011;46331;49.252;8.904;2023-05-10T00:18:48;1.73;;;0.43;;
60488;SDS011;46331;49.252;8.904;2023-05-10T00:19:28;2.63;;;0.50;;
60488;SDS011;46331;49.252;8.904;2023-05-10T00:20:09;1.35;;;0.38;;
60488;SDS011;46331;49.252;8.904;2023-05-10T00:20:50;1.67;;;0.40;;
60488;SDS011;46331;49.252;8.904;2023-05-10T00:21:31;1.80;;;0.50;;
60488;SDS011;46331;49.252;8.904;2023-05-10T00:22:12;1.95;;;0.50;;
60488;SDS011;46331;49.252;8.904;2023-05-10T00:22:53;1.90;;;0.55;;
60488;SDS011;46331;49.252;8.904;2023-05-10T00:23:33;2.00;;;0.30;;
60488;SDS011;46331;49.252;8.904;2023-05-10T00:24:14;1.92;;;0.50;;
60488;SDS011;46331;49.252;8.904;2023-05-10T00:24:54;2.53;;;0.50;;
60488;SDS011;46331;49.252;8.904;2023-05-10T00:25:35;3.17;;;0.60;;
60488;SDS011;46331;49.252;8.904;2023-05-10T00:26:16;2.43;;;0.40;;
60488;SDS011;46331;49.252;8.904;2023-05-10T00:26:59;2.20;;;0.60;;
60488;SDS011;46331;49.252;8.904;2023-05-10T00:27:40;1.95;;;0.57;;
60488;SDS011;46331;49.252;8.904;2023-05-10T00:28:21;3.28;;;0.60;;
60488;SDS011;46331;49.252;8.904;2023-05-10T00:29:02;2.10;;;0.50;;
60488;SDS011;46331;49.252;8.904;2023-05-10T00:29:42;3.03;;;0.50;;
60488;SDS011;46331;49.252;8.904;2023-05-10T00:30:23;2.03;;;0.47;;
60488;SDS011;46331;49.252;8.904;2023-05-10T00:31:04;1.50;;;0.40;;
60488;SDS011;46331;49.252;8.904;2023-05-10T00:31:44;3.38;;;0.65;;
60488;SDS011;46331;49.252;8.904;2023-05-10T00:32:25;4.67;;;0.57;;
60488;SDS011;46331;49.252;8.904;2023-05-10T00:33:06;3.28;;;0.47;;
60488;SDS011;46331;49.252;8.904;2023-05-10T00:33:47;1.77;;;0.40;;
60488;SDS011;46331;49.252;8.904;2023-05-10T00:34:27;2.20;;;0.50;;
60488;SDS011;46331;49.252;8.904;2023-05-10T00:35:08;1.55;;;0.40;;
60488;SDS011;46331;49.252;8.904;2023-05-10T00:35:49;2.50;;;0.40;;
60488;SDS011;46331;49.252;8.904;2023-05-10T00:36:29;2.53;;;0.30;;
60488;SDS011;46331;49.252;8.904;2023-05-10T00:37:11;2.20;;;0.50;;
60488;SDS011;46331;49.252;8.904;2023-05-10T00:37:51;1.80;;;0.40;;
60488;SDS011;46331;49.252;8.904;2023-05-10T00:38:32;2.33;;;0.50;;
60488;SDS011;46331;49.252;8.904;2023-05-10T00:39:13;3.85;;;0.60;;
60488;SDS011;46331;49.252;8.904;2023-05-10T00:39:54;2.25;;;0.50;;
60488;SDS011;46331;49.252;8.904;2023-05-10T00:40:35;1.33;;;0.40;;
60488;SDS011;46331;49.252;8.904;2023-05-10T00:41:18;2.83;;;0.60;;
60488;SDS011;46331;49.252;8.904;2023-05-10T00:42:00;2.25;;;0.30;;
60488;SDS011;46331;49.252;8.904;2023-05-10T00:42:41;1.50;;;0.40;;
60488;SDS011;46331;49.252;8.904;2023-05-10T00:43:21;1.93;;;0.53;;
60488;SDS011;46331;49.252;8.904;2023-05-10T00:44:02;1.48;;;0.40;;
60488;SDS011;46331;49.252;8.904;2023-05-10T00:44:43;2.28;;;0.60;;
60488;SDS011;46331;49.252;8.904;2023-05-10T00:45:23;1.90;;;0.53;;
60488;SDS011;46331;49.252;8.904;2023-05-10T00:46:05;1.23;;;0.40;;
60488;SDS011;46331;49.252;8.904;2023-05-10T00:46:46;1.80;;;0.40;;
60488;SDS011;46331;49.252;8.904;2023-05-10T00:47:28;2.53;;;0.50;;
60488;SDS011;46331;49.252;8.904;2023-05-10T00:48:10;3.85;;;0.40;;
60488;SDS011;46331;49.252;8.904;2023-05-10T00:48:51;3.72;;;0.50;;
60488;SDS011;46331;49.252;8.904;2023-05-10T00:49:32;2.17;;;0.50;;
60488;SDS011;46331;49.252;8.904;2023-05-10T00:50:13;1.30;;;0.40;;
60488;SDS011;46331;49.252;8.904;2023-05-10T00:50:58;1.45;;;0.40;;
60488;SDS011;46331;49.252;8.904;2023-05-10T00:51:39;1.70;;;0.40;;
60488;SDS011;46331;49.252;8.904;2023-05-10T00:52:19;1.47;;;0.37;;
60488;SDS011;46331;49.252;8.904;2023-05-10T00:53:03;2.00;;;0.65;;
60488;SDS011;46331;49.252;8.904;2023-05-10T00:53:47;2.00;;;0.55;;
60488;SDS011;46331;49.252;8.904;2023-05-10T00:54:29;2.78;;;0.50;;
60488;SDS011;46331;49.252;8.904;2023-05-10T00:55:10;3.80;;;0.50;;
60488;SDS011;46331;49.252;8.904;2023-05-10T00:55:52;1.83;;;0.50;;
60488;SDS011;46331;49.252;8.904;2023-05-10T00:56:33;2.30;;;0.55;;
60488;SDS011;46331;49.252;8.904;2023-05-10T00:57:14;2.10;;;0.60;;
60488;SDS011;46331;49.252;8.904;2023-05-10T00:57:55;2.15;;;0.50;;
60488;SDS011;46331;49.252;8.904;2023-05-10T00:58:36;2.30;;;0.50;;
60488;SDS011;46331;49.252;8.904;2023-05-10T00:59:16;2.10;;;0.50;;
60488;SDS011;46331;49.252;8.904;2023-05-10T00:59:58;3.47;;;0.50;;
60488;SDS011;46331;49.252;8.904;2023-05-10T01:00:39;2.65;;;0.50;;
60488;SDS011;46331;49.252;8.904;2023-05-10T01:01:22;1.58;;;0.40;;
60488;SDS011;46331;49.252;8.904;2023-05-10T01:02:03;2.47;;;0.50;;
60488;SDS011;46331;49.252;8.904;2023-05-10T01:02:44;2.20;;;0.55;;
60488;SDS011;46331;49.252;8.904;2023-05-10T01:03:26;1.90;;;0.60;;
60488;SDS011;46331;49.252;8.904;2023-05-10T01:04:07;1.55;;;0.45;;
60488;SDS011;46331;49.252;8.904;2023-05-10T01:04:50;1.63;;;0.50;;
60488;SDS011;46331;49.252;8.904;2023-05-10T01:05:32;2.53;;;0.50;;
60488;SDS011;46331;49.252;8.904;2023-05-10T01:06:12;0.90;;;0.30;;
60488;SDS011;46331;49.252;8.904;2023-05-10T01:06:53;2.97;;;0.55;;
60488;SDS011;46331;49.252;8.904;2023-05-10T01:07:34;4.00;;;0.67;;
60488;SDS011;46331;49.252;8.904;2023-05-10T01:08:14;2.00;;;0.40;;
60488;SDS011;46331;49.252;8.904;2023-05-10T01:08:55;3.70;;;0.50;;
60488;SDS011;46331;49.252;8.904;2023-05-10T01:09:36;2.50;;;0.60;;
60488;SDS011;46331;49.252;8.904;2023-05-10T01:10:17;1.73;;;0.40;;
60488;SDS011;46331;49.252;8.904;2023-05-10T01:10:57;2.72;;;0.40;;
60488;SDS011;46331;49.252;8.904;2023-05-10T01:11:38;3.37;;;0.57;;
60488;SDS011;46331;49.252;8.904;2023-05-10T01:12:20;2.55;;;0.40;;
60488;SDS011;46331;49.252;8.904;2023-05-10T01:13:01;2.13;;;0.40;;
60488;SDS011;46331;49.252;8.904;2023-05-10T01:13:43;2.00;;;0.50;;
60488;SDS011;46331;49.252;8.904;2023-05-10T01:14:30;1.60;;;0.40;;
60488;SDS011;46331;49.252;8.904;2023-05-10T01:15:10;1.35;;;0.40;;
60488;SDS011;46331;49.252;8.904;2023-05-10T01:15:52;1.90;;;0.40;;
60488;SDS011;46331;49.252;8.904;2023-05-10T01:16:37;1.55;;;0.40;;
60488;SDS011;46331;49.252;8.904;2023-05-10T01:17:19;2.38;;;0.50;;
60488;SDS011;46331;49.252;8.904;2023-05-10T01:18:04;1.80;;;0.47;;
60488;SDS011;46331;49.252;8.904;2023-05-10T01:18:44;2.00;;;0.50;;
60488;SDS011;46331;49.252;8.904;2023-05-10T01:19:28;2.00;;;0.73;;
60488;SDS011;46331;49.252;8.904;2023-05-10T01:20:11;2.72;;;0.90;;
60488;SDS011;46331;49.252;8.904;2023-05-10T01:20:56;3.80;;;0.43;;
60488;SDS011;46331;49.252;8.904;2023-05-10T01:21:51;1.60;;;0.40;;
60488;SDS011;46331;49.252;8.904;2023-05-10T01:33:56;1.92;;;0.50;;
60488;SDS011;46331;49.252;8.904;2023-05-10T01:34:53;1.73;;;0.52;;
60488;SDS011;46331;49.252;8.904;2023-05-10T01:35:41;4.50;;;0.60;;
60488;SDS011;46331;49.252;8.904;2023-05-10T01:36:43;3.95;;;0.93;;
60488;SDS011;46331;49.252;8.904;2023-05-10T01:37:49;3.25;;;0.70;;
60488;SDS011;46331;49.252;8.904;2023-05-10T01:39:20;2.58;;;0.70;;
60488;SDS011;46331;49.252;8.904;2023-05-10T01:40:08;2.97;;;0.70;;
60488;SDS011;46331;49.252;8.904;2023-05-10T01:42:40;2.97;;;0.90;;
60488;SDS011;46331;49.252;8.904;2023-05-10T01:43:28;2.20;;;0.70;;
60488;SDS011;46331;49.252;8.904;2023-05-10T01:46:04;2.97;;;0.70;;
60488;SDS011;46331;49.252;8.904;2023-05-10T01:46:53;2.55;;;0.80;;
60488;SDS011;46331;49.252;8.904;2023-05-10T01:47:42;3.78;;;0.80;;
60488;SDS011;46331;49.252;8.904;2023-05-10T01:48:24;2.92;;;0.90;;
60488;SDS011;46331;49.252;8.904;2023-05-10T01:49:21;3.40;;;0.70;;
60488;SDS011;46331;49.252;8.904;2023-05-10T01:50:06;2.90;;;0.60;;
60488;SDS011;46331;49.252;8.904;2023-05-10T01:50:55;2.20;;;0.63;;
60488;SDS011;46331;49.252;8.904;2023-05-10T01:51:41;2.80;;;0.90;;
60488;SDS011;46331;49.252;8.904;2023-05-10T01:52:30;2.83;;;0.93;;
60488;SDS011;46331;49.252;8.904;2023-05-10T01:53:13;2.50;;;0.80;;
60488;SDS011;46331;49.252;8.904;2023-05-10T01:54:00;4.10;;;0.80;;
60488;SDS011;46331;49.252;8.904;2023-05-10T01:54:42;3.22;;;1.00;;
60488;SDS011;46331;49.252;8.904;2023-05-10T01:55:36;5.22;;;0.80;;
60488;SDS011;46331;49.252;8.904;2023-05-10T01:56:23;3.83;;;0.75;;
60488;SDS011;46331;49.252;8.904;2023-05-10T01:57:06;2.73;;;0.90;;
60488;SDS011;46331;49.252;8.904;2023-05-10T01:58:00;2.72;;;0.90;;
60488;SDS011;46331;49.252;8.904;2023-05-10T01:58:48;3.53;;;0.90;;
60488;SDS011;46331;49.252;8.904;2023-05-10T01:59:33;4.28;;;0.98;;
60488;SDS011;46331;49.252;8.904;2023-05-10T02:00:21;4.85;;;0.75;;
60488;SDS011;46331;49.252;8.904;2023-05-10T02:01:05;3.00;;;0.88;;
60488;SDS011;46331;49.252;8.904;2023-05-10T02:01:48;5.13;;;0.82;;
60488;SDS011;46331;49.252;8.904;2023-05-10T02:02:38;5.78;;;1.00;;
60488;SDS011;46331;49.252;8.904;2023-05-10T02:03:23;3.75;;;1.08;;
60488;SDS011;46331;49.252;8.904;2023-05-10T02:04:06;3.35;;;1.00;;
60488;SDS011;46331;49.252;8.904;2023-05-10T02:04:49;2.93;;;0.80;;
60488;SDS011;46331;49.252;8.904;2023-05-10T02:05:32;3.50;;;0.90;;
60488;SDS011;46331;49.252;8.904;2023-05-10T02:06:14;2.40;;;0.68;;
60488;SDS011;46331;49.252;8.904;2023-05-10T02:06:58;4.88;;;1.15;;
60488;SDS011;46331;49.252;8.904;2023-05-10T02:07:39;3.08;;;0.90;;
60488;SDS011;46331;49.252;8.904;2023-05-10T02:08:21;3.28;;;1.05;;
60488;SDS011;46331;49.252;8.904;2023-05-10T02:09:03;3.95;;;0.95;;
60488;SDS011;46331;49.252;8.904;2023-05-10T02:09:46;3.70;;;0.97;;
60488;SDS011;46331;49.252;8.904;2023-05-10T02:10:28;4.85;;;1.17;;
60488;SDS011;46331;49.252;8.904;2023-05-10T02:11:10;4.28;;;1.20;;
60488;SDS011;46331;49.252;8.904;2023-05-10T02:11:53;3.13;;;1.00;;
60488;SDS011;46331;49.252;8.904;2023-05-10T02:12:35;3.47;;;0.98;;
60488;SDS011;46331;49.252;8.904;2023-05-10T02:13:17;3.50;;;1.00;;
60488;SDS011;46331;49.252;8.904;2023-05-10T02:13:58;3.47;;;1.55;;
60488;SDS011;46331;49.252;8.904;2023-05-10T02:14:43;3.00;;;1.00;;
60488;SDS011;46331;49.252;8.904;2023-05-10T02:15:25;3.67;;;1.25;;
60488;SDS011;46331;49.252;8.904;2023-05-10T02:16:12;3.03;;;0.93;;
60488;SDS011;46331;49.252;8.904;2023-05-10T02:16:54;2.90;;;1.10;;
60488;SDS011;46331;49.252;8.904;2023-05-10T02:17:37;3.08;;;1.00;;
60488;SDS011;46331;49.252;8.904;2023-05-10T02:18:19;2.92;;;1.10;;
60488;SDS011;46331;49.252;8.904;2023-05-10T02:19:02;4.00;;;1.23;;
60488;SDS011;46331;49.252;8.904;2023-05-10T02:19:44;3.20;;;1.10;;
60488;SDS011;46331;49.252;8.904;2023-05-10T02:20:26;2.80;;;1.10;;
60488;SDS011;46331;49.252;8.904;2023-05-10T02:21:07;4.40;;;1.85;;
60488;SDS011;46331;49.252;8.904;2023-05-10T02:21:52;4.95;;;1.10;;
60488;SDS011;46331;49.252;8.904;2023-05-10T02:22:34;3.78;;;1.17;;
60488;SDS011;46331;49.252;8.904;2023-05-10T02:23:16;2.72;;;1.00;;
60488;SDS011;46331;49.252;8.904;2023-05-10T02:23:57;3.20;;;1.10;;
60488;SDS011;46331;49.252;8.904;2023-05-10T02:24:42;3.00;;;1.15;;
60488;SDS011;46331;49.252;8.904;2023-05-10T02:25:24;2.80;;;1.10;;
60488;SDS011;46331;49.252;8.904;2023-05-10T02:26:06;3.95;;;1.20;;
60488;SDS011;46331;49.252;8.904;2023-05-10T02:26:47;3.03;;;1.13;;
60488;SDS011;46331;49.252;8.904;2023-05-10T02:27:30;3.40;;;1.30;;
60488;SDS011;46331;49.252;8.904;2023-05-10T02:28:11;3.30;;;1.20;;
60488;SDS011;46331;49.252;8.904;2023-05-10T02:28:53;2.95;;;1.05;;
60488;SDS011;46331;49.252;8.904;2023-05-10T02:29:36;3.55;;;1.35;;
60488;SDS011;46331;49.252;8.904;2023-05-10T02:30:17;3.28;;;1.05;;
60488;SDS011;46331;49.252;8.904;2023-05-10T02:30:59;5.77;;;1.30;;
60488;SDS011;46331;49.252;8.904;2023-05-10T02:31:40;3.10;;;1.20;;
60488;SDS011;46331;49.252;8.904;2023-05-10T02:32:24;3.42;;;1.40;;
60488;SDS011;46331;49.252;8.904;2023-05-10T02:33:06;3.60;;;1.20;;
60488;SDS011;46331;49.252;8.904;2023-05-10T02:33:48;4.15;;;1.50;;
60488;SDS011;46331;49.252;8.904;2023-05-10T02:34:29;3.22;;;1.33;;
60488;SDS011;46331;49.252;8.904;2023-05-10T02:35:10;3.15;;;1.23;;
60488;SDS011;46331;49.252;8.904;2023-05-10T02:35:51;4.28;;;1.50;;
60488;SDS011;46331;49.252;8.904;2023-05-10T02:36:32;3.33;;;1.40;;
60488;SDS011;46331;49.252;8.904;2023-05-10T02:37:14;3.47;;;1.50;;
60488;SDS011;46331;49.252;8.904;2023-05-10T02:37:56;3.00;;;1.23;;
60488;SDS011;46331;49.252;8.904;2023-05-10T02:38:38;3.20;;;1.40;;
60488;SDS011;46331;49.252;8.904;2023-05-10T02:39:20;3.60;;;1.40;;
60488;SDS011;46331;49.252;8.904;2023-05-10T02:40:01;3.40;;;1.42;;
60488;SDS011;46331;49.252;8.904;2023-05-10T02:40:46;3.47;;;1.48;;
60488;SDS011;46331;49.252;8.904;2023-05-10T02:41:28;3.35;;;1.42;;
60488;SDS011;46331;49.252;8.904;2023-05-10T02:42:21;5.32;;;1.75;;
60488;SDS011;46331;49.252;8.904;2023-05-10T02:43:05;4.03;;;1.63;;
60488;SDS011;46331;49.252;8.904;2023-05-10T02:43:51;4.07;;;1.75;;
60488;SDS011;46331;49.252;8.904;2023-05-10T02:44:38;5.65;;;1.88;;
60488;SDS011;46331;49.252;8.904;2023-05-10T02:45:23;3.70;;;1.80;;
60488;SDS011;46331;49.252;8.904;2023-05-10T02:46:09;3.97;;;1.80;;
60488;SDS011;46331;49.252;8.904;2023-05-10T02:46:50;4.50;;;1.90;;
60488;SDS011;46331;49.252;8.904;2023-05-10T02:47:30;7.18;;;2.10;;
60488;SDS011;46331;49.252;8.904;2023-05-10T02:48:11;3.77;;;1.80;;
60488;SDS011;46331;49.252;8.904;2023-05-10T02:48:52;4.13;;;2.00;;
60488;SDS011;46331;49.252;8.904;2023-05-10T02:49:33;4.95;;;1.73;;
60488;SDS011;46331;49.252;8.904;2023-05-10T02:50:18;3.80;;;1.93;;
60488;SDS011;46331;49.252;8.904;2023-05-10T02:51:05;4.22;;;1.95;;
60488;SDS011;46331;49.252;8.904;2023-05-10T02:51:49;3.97;;;1.67;;
60488;SDS011;46331;49.252;8.904;2023-05-10T02:52:38;4.05;;;1.95;;
60488;SDS011;46331;49.252;8.904;2023-05-10T02:53:23;4.30;;;2.10;;
60488;SDS011;46331;49.252;8.904;2023-05-10T02:54:10;3.80;;;1.90;;
60488;SDS011;46331;49.252;8.904;2023-05-10T02:54:54;4.50;;;2.13;;
60488;SDS011;46331;49.252;8.904;2023-05-10T02:55:36;4.05;;;1.90;;
60488;SDS011;46331;49.252;8.904;2023-05-10T02:56:23;4.97;;;2.20;;
60488;SDS011;46331;49.252;8.904;2023-05-10T02:57:08;4.47;;;1.88;;
60488;SDS011;46331;49.252;8.904;2023-05-10T02:57:56;4.17;;;1.60;;
60488;SDS011;46331;49.252;8.904;2023-05-10T02:58:40;4.05;;;2.00;;
60488;SDS011;46331;49.252;8.904;2023-05-10T02:59:20;5.30;;;1.80;;
60488;SDS011;46331;49.252;8.904;2023-05-10T03:00:04;4.63;;;1.58;;
60488;SDS011;46331;49.252;8.904;2023-05-10T03:00:45;5.03;;;1.90;;
60488;SDS011;46331;49.252;8.904;2023-05-10T03:01:26;3.90;;;1.80;;
60488;SDS011;46331;49.252;8.904;2023-05-10T03:02:10;3.97;;;1.90;;
60488;SDS011;46331;49.252;8.904;2023-05-10T03:02:52;4.40;;;1.70;;
60488;SDS011;46331;49.252;8.904;2023-05-10T03:03:33;3.40;;;1.55;;
60488;SDS011;46331;49.252;8.904;2023-05-10T03:04:13;6.25;;;2.10;;
60488;SDS011;46331;49.252;8.904;2023-05-10T03:04:54;4.50;;;1.90;;
60488;SDS011;46331;49.252;8.904;2023-05-10T03:05:35;4.13;;;1.90;;
60488;SDS011;46331;49.252;8.904;2023-05-10T03:06:17;5.80;;;1.80;;
60488;SDS011;46331;49.252;8.904;2023-05-10T03:06:57;3.87;;;1.80;;
60488;SDS011;46331;49.252;8.904;2023-05-10T03:07:38;3.92;;;1.70;;
60488;SDS011;46331;49.252;8.904;2023-05-10T03:08:19;11.18;;;2.42;;
60488;SDS011;46331;49.252;8.904;2023-05-10T03:08:59;4.23;;;1.87;;
60488;SDS011;46331;49.252;8.904;2023-05-10T03:09:42;3.72;;;1.63;;
60488;SDS011;46331;49.252;8.904;2023-05-10T03:10:27;4.85;;;1.85;;
60488;SDS011;46331;49.252;8.904;2023-05-10T03:13:01;3.90;;;1.70;;
60488;SDS011;46331;49.252;8.904;2023-05-10T03:13:29;4.40;;;1.75;;
60488;SDS011;46331;49.252;8.904;2023-05-10T03:16:21;5.82;;;1.80;;
60488;SDS011;46331;49.252;8.904;2023-05-10T03:19:09;5.10;;;2.10;;
60488;SDS011;46331;49.252;8.904;2023-05-10T03:20:12;5.82;;;2.45;;
60488;SDS011;46331;49.252;8.904;2023-05-10T03:21:02;4.30;;;2.47;;
60488;SDS011;46331;49.252;8.904;2023-05-10T03:21:47;4.65;;;2.15;;
60488;SDS011;46331;49.252;8.904;2023-05-10T03:22:32;4.05;;;2.17;;
60488;SDS011;46331;49.252;8.904;2023-05-10T03:23:20;4.53;;;2.42;;
60488;SDS011;46331;49.252;8.904;2023-05-10T03:24:07;4.30;;;1.90;;
60488;SDS011;46331;49.252;8.904;2023-05-10T03:24:50;4.15;;;2.38;;
60488;SDS011;46331;49.252;8.904;2023-05-10T03:25:34;4.28;;;2.10;;
60488;SDS011;46331;49.252;8.904;2023-05-10T03:26:34;6.28;;;2.30;;
60488;SDS011;46331;49.252;8.904;2023-05-10T03:27:23;6.18;;;2.33;;
60488;SDS011;46331;49.252;8.904;2023-05-10T03:28:06;4.97;;;2.20;;
60488;SDS011;46331;49.252;8.904;2023-05-10T03:28:49;6.60;;;2.40;;
60488;SDS011;46331;49.252;8.904;2023-05-10T03:29:30;4.20;;;2.20;;
60488;SDS011;46331;49.252;8.904;2023-05-10T03:30:12;5.15;;;2.80;;
60488;SDS011;46331;49.252;8.904;2023-05-10T03:30:53;4.72;;;2.53;;
60488;SDS011;46331;49.252;8.904;2023-05-10T03:31:35;5.53;;;2.70;;
60488;SDS011;46331;49.252;8.904;2023-05-10T03:32:16;4.40;;;2.40;;
60488;SDS011;46331;49.252;8.904;2023-05-10T03:32:56;4.80;;;2.80;;
60488;SDS011;46331;49.252;8.904;2023-05-10T03:33:45;5.25;;;3.03;;
60488;SDS011;46331;49.252;8.904;2023-05-10T03:34:27;4.40;;;2.53;;
60488;SDS011;46331;49.252;8.904;2023-05-10T03:35:11;7.13;;;2.93;;
60488;SDS011;46331;49.252;8.904;2023-05-10T03:35:55;4.97;;;2.83;;
60488;SDS011;46331;49.252;8.904;2023-05-10T03:36:36;5.32;;;2.80;;
60488;SDS011;46331;49.252;8.904;2023-05-10T03:37:16;5.93;;;2.70;;
60488;SDS011;46331;49.252;8.904;2023-05-10T03:37:57;5.88;;;3.03;;
60488;SDS011;46331;49.252;8.904;2023-05-10T03:38:37;5.50;;;3.00;;
60488;SDS011;46331;49.252;8.904;2023-05-10T03:39:18;5.20;;;2.60;;
60488;SDS011;46331;49.252;8.904;2023-05-10T03:40:06;4.90;;;3.00;;
60488;SDS011;46331;49.252;8.904;2023-05-10T03:40:49;5.32;;;2.90;;
60488;SDS011;46331;49.252;8.904;2023-05-10T03:41:30;5.30;;;2.78;;
60488;SDS011;46331;49.252;8.904;2023-05-10T03:42:10;6.43;;;2.70;;
60488;SDS011;46331;49.252;8.904;2023-05-10T03:42:52;4.55;;;2.97;;
60488;SDS011;46331;49.252;8.904;2023-05-10T03:43:32;6.32;;;3.38;;
60488;SDS011;46331;49.252;8.904;2023-05-10T03:44:13;6.67;;;3.17;;
60488;SDS011;46331;49.252;8.904;2023-05-10T03:44:53;5.23;;;3.33;;
60488;SDS011;46331;49.252;8.904;2023-05-10T03:45:34;5.43;;;3.20;;
60488;SDS011;46331;49.252;8.904;2023-05-10T03:46:14;5.43;;;3.03;;
60488;SDS011;46331;49.252;8.904;2023-05-10T03:46:55;6.55;;;3.30;;
60488;SDS011;46331;49.252;8.904;2023-05-10T03:47:37;6.40;;;3.25;;
60488;SDS011;46331;49.252;8.904;2023-05-10T03:48:17;5.20;;;3.37;;
60488;SDS011;46331;49.252;8.904;2023-05-10T03:48:58;5.05;;;3.30;;
60488;SDS011;46331;49.252;8.904;2023-05-10T03:49:38;6.63;;;3.40;;
60488;SDS011;46331;49.252;8.904;2023-05-10T03:50:19;7.18;;;4.38;;
60488;SDS011;46331;49.252;8.904;2023-05-10T03:51:01;6.32;;;3.20;;
60488;SDS011;46331;49.252;8.904;2023-05-10T03:51:42;5.33;;;2.93;;
60488;SDS011;46331;49.252;8.904;2023-05-10T03:52:22;5.15;;;3.28;;
60488;SDS011;46331;49.252;8.904;2023-05-10T03:53:03;8.27;;;3.70;;
60488;SDS011;46331;49.252;8.904;2023-05-10T03:53:44;6.20;;;3.67;;
60488;SDS011;46331;49.252;8.904;2023-05-10T03:54:25;6.00;;;3.47;;
60488;SDS011;46331;49.252;8.904;2023-05-10T03:55:06;5.60;;;3.20;;
60488;SDS011;46331;49.252;8.904;2023-05-10T03:55:47;7.38;;;3.05;;
60488;SDS011;46331;49.252;8.904;2023-05-10T03:56:27;5.13;;;2.90;;
60488;SDS011;46331;49.252;8.904;2023-05-10T03:57:08;4.40;;;2.47;;
60488;SDS011;46331;49.252;8.904;2023-05-10T03:57:48;5.57;;;2.67;;
60488;SDS011;46331;49.252;8.904;2023-05-10T03:58:29;6.77;;;4.10;;
60488;SDS011;46331;49.252;8.904;2023-05-10T03:59:10;5.72;;;3.30;;
60488;SDS011;46331;49.252;8.904;2023-05-10T03:59:51;4.50;;;2.50;;
60488;SDS011;46331;49.252;8.904;2023-05-10T04:00:31;4.75;;;2.75;;
60488;SDS011;46331;49.252;8.904;2023-05-10T04:01:13;7.57;;;2.78;;
60488;SDS011;46331;49.252;8.904;2023-05-10T04:01:54;6.10;;;3.80;;
60488;SDS011;46331;49.252;8.904;2023-05-10T04:02:34;5.07;;;3.03;;
60488;SDS011;46331;49.252;8.904;2023-05-10T04:03:15;5.33;;;2.77;;
60488;SDS011;46331;49.252;8.904;2023-05-10T04:03:55;6.17;;;2.90;;
60488;SDS011;46331;49.252;8.904;2023-05-10T04:04:39;5.00;;;2.90;;
60488;SDS011;46331;49.252;8.904;2023-05-10T04:05:19;5.60;;;3.00;;
60488;SDS011;46331;49.252;8.904;2023-05-10T04:06:00;6.33;;;3.10;;
60488;SDS011;46331;49.252;8.904;2023-05-10T04:06:41;4.80;;;2.80;;
60488;SDS011;46331;49.252;8.904;2023-05-10T04:07:22;4.72;;;2.50;;
60488;SDS011;46331;49.252;8.904;2023-05-10T04:08:03;4.50;;;2.43;;
60488;SDS011;46331;49.252;8.904;2023-05-10T04:08:44;4.03;;;2.22;;
60488;SDS011;46331;49.252;8.904;2023-05-10T04:09:25;5.07;;;2.50;;
60488;SDS011;46331;49.252;8.904;2023-05-10T04:10:06;6.47;;;2.53;;
60488;SDS011;46331;49.252;8.904;2023-05-10T04:10:47;5.30;;;2.97;;
60488;SDS011;46331;49.252;8.904;2023-05-10T04:11:27;6.88;;;2.50;;
60488;SDS011;46331;49.252;8.904;2023-05-10T04:12:08;5.00;;;2.50;;
60488;SDS011;46331;49.252;8.904;2023-05-10T04:12:49;5.55;;;2.17;;
60488;SDS011;46331;49.252;8.904;2023-05-10T04:13:29;4.60;;;2.47;;
60488;SDS011;46331;49.252;8.904;2023-05-10T04:14:10;4.20;;;2.00;;
60488;SDS011;46331;49.252;8.904;2023-05-10T04:14:50;3.80;;;1.83;;
60488;SDS011;46331;49.252;8.904;2023-05-10T04:15:31;4.63;;;2.10;;
60488;SDS011;46331;49.252;8.904;2023-05-10T04:16:11;4.30;;;2.10;;
60488;SDS011;46331;49.252;8.904;2023-05-10T04:16:52;4.00;;;1.90;;
60488;SDS011;46331;49.252;8.904;2023-05-10T04:17:32;4.53;;;1.90;;
60488;SDS011;46331;49.252;8.904;2023-05-10T04:18:13;7.15;;;2.13;;
60488;SDS011;46331;49.252;8.904;2023-05-10T04:18:53;5.27;;;2.10;;
60488;SDS011;46331;49.252;8.904;2023-05-10T04:19:34;5.37;;;1.83;;
60488;SDS011;46331;49.252;8.904;2023-05-10T04:20:14;3.95;;;1.80;;
60488;SDS011;46331;49.252;8.904;2023-05-10T04:20:55;4.57;;;2.13;;
60488;SDS011;46331;49.252;8.904;2023-05-10T04:21:36;4.55;;;2.10;;
60488;SDS011;46331;49.252;8.904;2023-05-10T04:22:16;4.23;;;2.20;;
60488;SDS011;46331;49.252;8.904;2023-05-10T04:22:57;4.40;;;1.75;;
60488;SDS011;46331;49.252;8.904;2023-05-10T04:23:38;5.13;;;2.00;;
60488;SDS011;46331;49.252;8.904;2023-05-10T04:24:19;3.67;;;1.83;;
60488;SDS011;46331;49.252;8.904;2023-05-10T04:24:59;5.50;;;1.80;;
60488;SDS011;46331;49.252;8.904;2023-05-10T04:25:40;5.13;;;1.90;;
60488;SDS011;46331;49.252;8.904;2023-05-10T04:26:20;5.23;;;1.80;;
60488;SDS011;46331;49.252;8.904;2023-05-10T04:27:02;4.60;;;2.15;;
60488;SDS011;46331;49.252;8.904;2023-05-10T04:27:42;4.17;;;2.03;;
60488;SDS011;46331;49.252;8.904;2023-05-10T04:28:23;4.40;;;1.92;;
60488;SDS011;46331;49.252;8.904;2023-05-10T04:29:03;4.10;;;2.13;;
60488;SDS011;46331;49.252;8.904;2023-05-10T04:29:44;4.65;;;2.10;;
60488;SDS011;46331;49.252;8.904;2023-05-10T04:30:24;8.40;;;3.17;;
60488;SDS011;46331;49.252;8.904;2023-05-10T04:31:06;4.30;;;1.95;;
60488;SDS011;46331;49.252;8.904;2023-05-10T04:31:47;5.03;;;2.38;;
60488;SDS011;46331;49.252;8.904;2023-05-10T04:32:28;4.65;;;2.13;;
60488;SDS011;46331;49.252;8.904;2023-05-10T04:33:09;4.73;;;2.30;;
60488;SDS011;46331;49.252;8.904;2023-05-10T04:33:49;4.53;;;2.00;;
60488;SDS011;46331;49.252;8.904;2023-05-10T04:34:30;4.57;;;2.25;;
60488;SDS011;46331;49.252;8.904;2023-05-10T04:35:10;4.97;;;2.07;;
60488;SDS011;46331;49.252;8.904;2023-05-10T04:35:51;5.22;;;2.20;;
60488;SDS011;46331;49.252;8.904;2023-05-10T04:36:32;4.30;;;1.93;;
60488;SDS011;46331;49.252;8.904;2023-05-10T04:37:16;4.30;;;1.80;;
60488;SDS011;46331;49.252;8.904;2023-05-10T04:37:57;4.38;;;1.77;;